Claremont, NH (03743)

3:58 AM EST on November 28, 2014 (GMT -0500)
Airport Hill | Change Station
CLOSE
Current Station
Personal Weather Station
Location: Claremont, NH
Elevation: 545 ft
Nearby Weather Stations

Elev 545 ft 43.37 °N, 72.37 °W | Updated 1 second ago

Overcast
Overcast
24.4 °F
Feels Like 24 °F
N
0.0
Wind Variable Wind from East
Gusts 0.0 mph

Today
High -- | Low -- °F
--% Chance of Precip.
Yesterday
High -- | Low -- °F
Precip. -- in
6:58 AM 4:15 PM
Waxing Crescent, 38% visible
Pressure 30.04 in
Visibility 10.0 miles
Clouds Few 1000 ft
Few 6000 ft
Overcast 9000 ft
Windchill 24 °F
Dew Point 21 °F
Humidity 87%
Rainfall 0.00 in
Snow Depth Not available.
UV 0 out of 12
Pollen .10 out of 12
Air Quality Not available.
Flu Activity Not available.
METAR KLEB 280853Z 00000KT 10SM FEW010 FEW060 OVC090 M03/M06 A3001 RMK AO2 SNB0758E22 SLP172 P0000 60000 T10331061 53004

More Conditions Fewer Conditions

Pressure 30.04 in
Visibility 10.0 miles
Clouds Few 1000 ft
Few 6000 ft
Overcast 9000 ft
Windchill 24 °F
Dew Point 21 °F
Humidity 87%
Rainfall 0.00 in
Snow Depth Not available.
UV 0 out of 12
Pollen .10 out of 12
Air Quality Not available.
Flu Activity Not available.
METAR KLEB 280853Z 00000KT 10SM FEW010 FEW060 OVC090 M03/M06 A3001 RMK AO2 SNB0758E22 SLP172 P0000 60000 T10331061 53004

More Conditions Fewer Conditions

10-Day Weather Forecast

Almanac

Astronomy

Nov. 28, 2014 Rise Set
Actual Time
Civil Twilight
Nautical Twilight
Astronomical Twilight
Moon
Length of Visible Light
Length of Day
Tomorrow will be .
, % of the Moon is Illuminated

Today's Extremes

State Highs State Lows

Community

WunderPhotos

Upload Photos

1,774,190 photos uploaded!

WunderBlogs® & News

Nearby

Air Quality

  Air Quality AQ Index Pollutant
Not available.

Snow Depth

Station Depth Elevation

Earthquake Activity

City Distance Mag. Time & Date
Minimum magnitude displayed is 2.5.

Coastal Water Temperatures

Place Temperature

Nearby Weather Stations